Amboy, Iowa
Current Conditions -  °F | °C
As of 5:55 PM on Friday 21 Nov 2014 (Local Time) from KTNU Reporting Station
Overcast Overcast  
Wind Chill: 24°   Ceiling: 1600
Heat Index: 34°   Visibility: 10mi
Dew Point: 23°   Wind: 15mph
Humidity: 65%   Direction: 160°SSE
Pressure: 30.12"   Gusts: NA
Location:  41.7317°N, 93.0122°W
Report Text: KTNU 212355Z AUTO 16013KT 10SM OVC016 01/M05 A3012 RMK AO2
Loading
Personal Weather Stations






























Interactive Weather Map New forecast layout! Learn more

10-Day Weather Forecast

Advertisements
Track Severe Weather on mobile